Time;durP1;ratioP1;P1;durP2;ratioP2;P2;SDS_P1;SDS_P2;PMS_P1;PMS_P2;Temp;Humidity;BMP_temperature;BMP_pressure;BME280_temperature;BME280_humidity;BME280_pressure;Samples;Min_cycle;Max_cycle;Signal;HPM_P1;HPM_P2
2021/06/24 00:04:27;;;;;;;;;;;;;;;29.32;46.27;100638.74;1838771;78;20140;-79
2021/06/24 00:06:53;;;;;;;;;;;;;;;29.30;46.32;100632.69;1838974;78;20137;-79
2021/06/24 00:09:19;;;;;;;;;;;;;;;29.25;46.25;100629.39;1838835;78;20172;-79
2021/06/24 00:11:45;;;;;;;;;;;;;;;29.25;46.14;100635.43;1839629;78;20446;-79
2021/06/24 00:14:12;;;;;;;;;;;;;;;29.24;46.09;100630.47;1840043;78;20138;-79
2021/06/24 00:16:40;;;;;;;;;;;;;;;29.24;46.09;100630.47;1840490;78;20113;-79
2021/06/24 00:19:06;;;;;;;;;;;;;;;29.22;46.04;100635.45;1840865;78;20156;-79
2021/06/24 00:21:33;;;;;;;;;;;;;;;29.22;46.03;100637.39;1840547;78;20121;-79
2021/06/24 00:23:59;;;;;;;;;;;;;;;29.20;46.10;100634.06;1840383;78;20128;-79
2021/06/24 00:26:25;;;;;;;;;;;;;;;29.19;46.18;100633.23;1840105;78;20262;-80
2021/06/24 00:28:52;;;;;;;;;;;;;;;29.18;46.24;100627.45;1840137;78;20430;-79
2021/06/24 00:31:18;;;;;;;;;;;;;;;29.16;46.28;100628.30;1840561;78;20151;-79
2021/06/24 00:33:44;;;;;;;;;;;;;;;29.16;46.34;100625.54;1840183;78;20786;-79
2021/06/24 00:36:11;;;;;;;;;;;;;;;29.13;46.37;100621.95;1840289;78;20395;-79
2021/06/24 00:38:37;;;;;;;;;;;;;;;29.12;46.51;100623.06;1839557;78;20140;-78
2021/06/24 00:41:03;;;;;;;;;;;;;;;29.11;46.58;100617.24;1839889;78;20128;-79
2021/06/24 00:43:30;;;;;;;;;;;;;;;29.26;46.27;100624.14;1839990;78;20137;-79
2021/06/24 00:45:56;;;;;;;;;;;;;;;29.12;46.43;100616.72;1839489;78;20129;-79
2021/06/24 00:48:23;;;;;;;;;;;;;;;29.10;46.49;100620.29;1839475;78;20137;-79
2021/06/24 00:50:50;;;;;;;;;;;;;;;29.09;46.59;100615.88;1839841;78;20125;-79
2021/06/24 00:53:17;;;;;;;;;;;;;;;29.12;46.37;100612.02;1839640;78;20137;-79
2021/06/24 00:55:44;;;;;;;;;;;;;;;29.04;46.51;100612.02;1839502;78;20394;-79
2021/06/24 00:58:17;;;;;;;;;;;;;;;29.04;46.53;100612.58;1839634;78;20411;-79
2021/06/24 01:00:45;;;;;;;;;;;;;;;29.05;46.45;100612.84;1838782;78;20465;-78
2021/06/24 01:03:12;;;;;;;;;;;;;;;29.03;46.33;100610.37;1839492;78;20122;-79
2021/06/24 01:05:39;;;;;;;;;;;;;;;29.03;46.21;100610.37;1839870;78;20157;-79
2021/06/24 01:08:06;;;;;;;;;;;;;;;29.04;46.01;100612.58;1839703;78;20149;-79
2021/06/24 01:10:34;;;;;;;;;;;;;;;29.04;45.95;100623.61;1839719;78;20189;-78
2021/06/24 01:13:00;;;;;;;;;;;;;;;29.02;45.97;100628.03;1839601;78;20134;-79
2021/06/24 01:15:26;;;;;;;;;;;;;;;29.01;45.95;100618.08;1840466;78;20121;-78
2021/06/24 01:17:58;;;;;;;;;;;;;;;29.00;46.00;100621.13;1840524;78;20109;-78
2021/06/24 01:20:26;;;;;;;;;;;;;;;28.99;46.03;100605.70;1840388;78;20156;-79
2021/06/24 01:22:52;;;;;;;;;;;;;;;28.99;46.08;100601.00;1840199;78;20144;-79
2021/06/24 01:25:19;;;;;;;;;;;;;;;29.00;45.90;100608.72;1839813;78;20113;-79
2021/06/24 01:27:46;;;;;;;;;;;;;;;29.01;45.75;100614.50;1839947;78;20144;-78
2021/06/24 01:30:13;;;;;;;;;;;;;;;29.02;45.99;100612.02;1839863;78;20137;-78
2021/06/24 01:32:41;;;;;;;;;;;;;;;29.04;46.09;100624.98;1839686;78;20138;-79
2021/06/24 01:35:09;;;;;;;;;;;;;;;29.02;46.09;100622.52;1834188;77;20197;-78
2021/06/24 01:37:37;;;;;;;;;;;;;;;29.04;46.00;100613.95;1802690;78;20161;-79
2021/06/24 01:40:05;;;;;;;;;;;;;;;29.04;45.82;100611.20;1825087;78;20220;-79
2021/06/24 01:42:31;;;;;;;;;;;;;;;29.02;45.97;100632.70;1826510;78;20158;-79
2021/06/24 01:44:57;;;;;;;;;;;;;;;28.96;46.06;100621.41;1826143;78;20176;-79
2021/06/24 01:47:23;;;;;;;;;;;;;;;28.92;46.24;100636.26;1826472;78;20169;-79
2021/06/24 01:49:50;;;;;;;;;;;;;;;28.92;46.09;100600.41;1825557;78;20212;-79
2021/06/24 01:52:18;;;;;;;;;;;;;;;28.93;46.31;100630.19;1825914;78;20200;-79
2021/06/24 01:54:47;;;;;;;;;;;;;;;28.96;46.38;100626.92;1825812;78;20240;-78
2021/06/24 01:57:16;;;;;;;;;;;;;;;28.98;46.64;100629.69;1826247;78;20215;-78
2021/06/24 01:59:44;;;;;;;;;;;;;;;28.98;46.69;100622.80;1826592;78;20162;-79
2021/06/24 02:02:12;;;;;;;;;;;;;;;28.99;46.67;100625.82;1827006;78;20157;-79
2021/06/24 02:04:40;;;;;;;;;;;;;;;29.00;46.74;100626.09;1835349;77;20422;-79
2021/06/24 02:07:07;;;;;;;;;;;;;;;28.99;46.82;100626.38;1838134;78;20137;-79
2021/06/24 02:09:51;;;;;;;;;;;;;;;28.98;46.81;100626.11;1815389;78;20253;-79
2021/06/24 02:12:18;;;;;;;;;;;;;;;28.95;46.72;100634.37;1838299;78;20482;-79
2021/06/24 02:14:45;;;;;;;;;;;;;;;28.93;46.71;100631.01;1836956;78;20403;-78
2021/06/24 02:17:12;;;;;;;;;;;;;;;28.92;46.75;100633.50;1838286;78;20180;-79
2021/06/24 02:19:39;;;;;;;;;;;;;;;28.92;46.74;100640.95;1838283;78;20145;-79
2021/06/24 02:22:13;;;;;;;;;;;;;;;28.89;46.75;100640.97;1837025;78;20172;-79
2021/06/24 02:24:41;;;;;;;;;;;;;;;28.90;46.71;100634.89;1836875;78;20130;-79
2021/06/24 02:27:07;;;;;;;;;;;;;;;28.89;46.68;100635.98;1839663;77;20125;-79
2021/06/24 02:29:52;;;;;;;;;;;;;;;28.87;46.75;100640.95;1840523;78;20141;-79
2021/06/24 02:32:18;;;;;;;;;;;;;;;28.87;46.82;100643.70;1850964;77;20519;-79
2021/06/24 02:34:50;;;;;;;;;;;;;;;28.87;46.91;100640.40;1862452;77;20163;-80
2021/06/24 02:37:27;;;;;;;;;;;;;;;28.90;46.96;100641.79;1860701;77;20124;-80
2021/06/24 02:39:55;;;;;;;;;;;;;;;28.93;46.79;100648.11;1844718;77;20123;-79
2021/06/24 02:42:21;;;;;;;;;;;;;;;28.94;46.48;100640.14;1835489;77;20112;-79
2021/06/24 02:44:48;;;;;;;;;;;;;;;28.96;46.31;100644.84;1833017;78;20172;-79
2021/06/24 02:47:14;;;;;;;;;;;;;;;28.97;46.28;100649.25;1829387;78;20174;-78
2021/06/24 02:49:41;;;;;;;;;;;;;;;28.98;46.70;100646.80;1838619;78;20121;-79
2021/06/24 02:52:07;;;;;;;;;;;;;;;28.96;46.96;100647.60;1821715;78;20170;-79
2021/06/24 02:54:35;;;;;;;;;;;;;;;28.95;47.05;100639.88;1803758;79;20179;-79
2021/06/24 02:57:02;;;;;;;;;;;;;;;28.95;47.05;100645.40;1827276;78;20191;-79
2021/06/24 02:59:46;;;;;;;;;;;;;;;28.96;46.96;100637.95;1831195;77;20118;-79
2021/06/24 03:02:13;;;;;;;;;;;;;;;28.95;46.91;100631.61;1834267;78;20443;-79
2021/06/24 03:04:40;;;;;;;;;;;;;;;28.95;47.03;100631.61;1836266;77;20185;-79
2021/06/24 03:07:07;;;;;;;;;;;;;;;28.96;46.99;100628.30;1839065;78;20176;-80
2021/06/24 03:09:37;;;;;;;;;;;;;;;28.96;47.03;100631.88;1839050;78;20100;-79
2021/06/24 03:12:05;;;;;;;;;;;;;;;29.00;47.04;100632.98;1807995;78;20172;-79
2021/06/24 03:14:34;;;;;;;;;;;;;;;29.03;47.12;100635.75;1835657;78;20164;-79
2021/06/24 03:17:01;;;;;;;;;;;;;;;29.06;47.47;100627.73;1834265;77;20137;-79
2021/06/24 03:19:27;;;;;;;;;;;;;;;29.10;47.70;100633.52;1830309;77;20142;-79
2021/06/24 03:21:55;;;;;;;;;;;;;;;29.13;47.85;100626.64;1830097;77;20170;-79
2021/06/24 03:24:23;;;;;;;;;;;;;;;29.14;47.91;100629.66;1831911;77;20163;-79
2021/06/24 03:26:49;;;;;;;;;;;;;;;29.14;48.02;100625.53;1827172;78;20209;-79
2021/06/24 03:29:15;;;;;;;;;;;;;;;29.14;48.21;100624.97;1831295;78;20242;-78
2021/06/24 03:31:46;;;;;;;;;;;;;;;29.14;48.15;100620.84;1798779;78;20155;-80
2021/06/24 03:34:13;;;;;;;;;;;;;;;29.13;47.98;100620.56;1836866;77;20190;-79
2021/06/24 03:36:40;;;;;;;;;;;;;;;29.15;48.02;100616.97;1831368;77;20192;-80
2021/06/24 03:39:07;;;;;;;;;;;;;;;29.18;48.16;100615.59;1835945;78;20153;-79
2021/06/24 03:41:35;;;;;;;;;;;;;;;29.21;48.25;100612.29;1835394;78;20461;-82
2021/06/24 03:44:01;;;;;;;;;;;;;;;29.22;48.16;100612.56;1836853;77;20184;-79
2021/06/24 03:46:28;;;;;;;;;;;;;;;29.22;48.22;100606.48;1837070;78;20141;-80
2021/06/24 03:48:55;;;;;;;;;;;;;;;29.24;48.41;100614.47;1811739;78;20469;-79
2021/06/24 03:51:23;;;;;;;;;;;;;;;29.24;48.76;100613.91;1837002;77;20129;-80
2021/06/24 03:53:51;;;;;;;;;;;;;;;29.26;48.91;100617.80;1836707;78;20149;-80
2021/06/24 03:56:17;;;;;;;;;;;;;;;29.25;49.00;100614.21;1838237;78;20508;-80
2021/06/24 03:58:46;;;;;;;;;;;;;;;29.29;49.15;100618.04;1837738;78;20168;-80
2021/06/24 04:01:12;;;;;;;;;;;;;;;29.33;49.17;100621.08;1841212;77;20172;-79
2021/06/24 04:03:38;;;;;;;;;;;;;;;29.36;49.21;100614.19;1839735;77;20282;-79
2021/06/24 04:06:07;;;;;;;;;;;;;;;29.39;49.30;100617.75;1833870;78;20188;-80
2021/06/24 04:08:33;;;;;;;;;;;;;;;29.42;49.54;100622.72;1839248;78;20133;-80
2021/06/24 04:11:00;;;;;;;;;;;;;;;29.43;49.82;100625.73;1803676;78;20200;-79
2021/06/24 04:13:27;;;;;;;;;;;;;;;29.44;50.41;100616.37;1835825;77;20176;-80
2021/06/24 04:15:54;;;;;;;;;;;;;;;29.48;50.76;100629.34;1832069;77;20216;-79
2021/06/24 04:18:21;;;;;;;;;;;;;;;29.49;51.18;100630.16;1836458;78;20220;-81
2021/06/24 04:20:48;;;;;;;;;;;;;;;29.50;51.50;100624.35;1838770;78;20141;-80
2021/06/24 04:23:14;;;;;;;;;;;;;;;29.55;51.90;100626.30;1838228;78;20164;-80
2021/06/24 04:25:52;;;;;;;;;;;;;;;29.58;51.83;100631.27;1838685;78;20172;-80
2021/06/24 04:28:19;;;;;;;;;;;;;;;29.63;51.63;100628.49;1831489;78;20168;-80
2021/06/24 04:30:47;;;;;;;;;;;;;;;29.67;51.37;100626.83;1805418;79;20171;-80
2021/06/24 04:33:18;;;;;;;;;;;;;;;29.72;50.47;100622.66;1804397;79;20182;-80
2021/06/24 04:35:44;;;;;;;;;;;;;;;29.76;50.09;100620.17;1796596;79;20187;-81
2021/06/24 04:38:13;;;;;;;;;;;;;;;29.79;50.03;100616.27;1805700;79;20174;-82
2021/06/24 04:40:42;;;;;;;;;;;;;;;29.81;49.78;100619.59;1807574;79;20143;-80
2021/06/24 04:43:08;;;;;;;;;;;;;;;29.83;49.39;100611.02;1808164;79;20167;-81
2021/06/24 04:45:37;;;;;;;;;;;;;;;29.82;49.31;100615.71;1800793;79;20155;-81
2021/06/24 04:48:13;;;;;;;;;;;;;;;29.83;49.45;100617.36;1796922;78;20133;-80
2021/06/24 04:50:40;;;;;;;;;;;;;;;29.75;49.82;100615.20;1770787;81;20182;-79
2021/06/24 04:53:06;;;;;;;;;;;;;;;29.73;49.98;100620.17;1771622;81;20176;-80
2021/06/24 04:55:40;;;;;;;;;;;;;;;29.73;50.00;100621.55;1768386;80;20168;-79
2021/06/24 04:58:08;;;;;;;;;;;;;;;29.75;50.12;100619.34;1839730;77;20169;-80
2021/06/24 05:00:36;;;;;;;;;;;;;;;29.80;49.94;100622.64;1829217;77;20176;-77
2021/06/24 05:03:21;;;;;;;;;;;;;;;29.84;49.40;100616.80;1832526;77;20130;-77
2021/06/24 05:05:50;;;;;;;;;;;;;;;29.90;49.55;100621.77;1834388;77;20165;-76
2021/06/24 05:08:19;;;;;;;;;;;;;;;29.97;49.21;100617.57;1834974;77;20183;-79
2021/06/24 05:10:45;;;;;;;;;;;;;;;29.99;48.82;100611.78;1834062;77;20528;-75
2021/06/24 05:13:11;;;;;;;;;;;;;;;30.01;48.76;100613.69;1812230;77;20463;-78
2021/06/24 05:15:39;;;;;;;;;;;;;;;30.03;48.68;100612.31;1829329;77;20145;-78
2021/06/24 05:18:05;;;;;;;;;;;;;;;30.04;47.95;100609.81;1832733;77;20151;-78
2021/06/24 05:20:38;;;;;;;;;;;;;;;30.07;47.82;100611.20;1835367;77;20163;-77
2021/06/24 05:23:01;;;;;;;;;;;;;;;30.10;47.91;100609.78;1825454;77;20180;-76
2021/06/24 05:25:27;;;;;;;;;;;;;;;30.13;47.73;100608.66;1824556;77;20713;-76
2021/06/24 05:27:53;;;;;;;;;;;;;;;30.18;48.05;100618.33;1826635;77;20215;-76
2021/06/24 05:30:21;;;;;;;;;;;;;;;30.23;48.04;100615.53;1826247;77;20149;-78
2021/06/24 05:32:47;;;;;;;;;;;;;;;30.27;47.80;100612.48;1826255;77;20196;-78
2021/06/24 05:35:19;;;;;;;;;;;;;;;30.32;47.85;100614.38;1826670;77;20157;-78
2021/06/24 05:37:45;;;;;;;;;;;;;;;30.37;48.34;100621.81;1828489;77;20197;-78
2021/06/24 05:40:12;;;;;;;;;;;;;;;30.42;48.30;100617.63;1826014;77;20127;-78
2021/06/24 05:42:38;;;;;;;;;;;;;;;30.45;48.06;100616.51;1828767;77;20201;-79
2021/06/24 05:45:08;;;;;;;;;;;;;;;30.48;47.99;100622.03;1824541;77;20157;-77
2021/06/24 05:47:34;;;;;;;;;;;;;;;30.53;48.42;100633.05;1823238;77;20551;-76
2021/06/24 05:50:00;;;;;;;;;;;;;;;30.57;48.08;100638.28;1825850;76;20489;-76
2021/06/24 05:52:26;;;;;;;;;;;;;;;30.62;47.88;100634.09;1824410;77;20201;-75
2021/06/24 05:54:52;;;;;;;;;;;;;;;30.67;47.84;100628.52;1827858;76;20196;-76
2021/06/24 05:57:18;;;;;;;;;;;;;;;30.72;47.54;100627.69;1825774;77;20219;-75
2021/06/24 05:59:48;;;;;;;;;;;;;;;30.76;46.78;100635.12;1829778;77;20636;-75
2021/06/24 06:02:12;;;;;;;;;;;;;;;30.83;47.29;100626.48;1825861;77;20176;-77
2021/06/24 06:04:38;;;;;;;;;;;;;;;30.91;47.52;100625.86;1826614;77;20684;-78
2021/06/24 06:07:06;;;;;;;;;;;;;;;31.06;47.47;100627.66;1825770;77;20212;-78
2021/06/24 06:09:35;;;;;;;;;;;;;;;31.20;47.40;100621.70;1825352;77;20241;-78
2021/06/24 06:12:03;;;;;;;;;;;;;;;31.35;46.93;100616.63;1824002;77;20247;-75
2021/06/24 06:14:30;;;;;;;;;;;;;;;31.44;46.92;100606.56;1820578;77;20450;-78
2021/06/24 06:16:57;;;;;;;;;;;;;;;31.54;46.22;100611.16;1827800;77;20203;-76
2021/06/24 06:19:23;;;;;;;;;;;;;;;31.63;46.37;100605.80;1824511;77;20204;-77
2021/06/24 06:21:49;;;;;;;;;;;;;;;31.71;45.95;100604.59;1827256;77;20195;-78
2021/06/24 06:24:15;;;;;;;;;;;;;;;31.82;45.58;100602.50;1829593;77;20189;-79
2021/06/24 06:26:42;;;;;;;;;;;;;;;31.93;46.22;100599.05;1809126;77;20191;-79
2021/06/24 06:29:09;;;;;;;;;;;;;;;32.10;46.21;100595.78;1825244;77;21113;-79
2021/06/24 06:31:37;;;;;;;;;;;;;;;32.25;45.99;100595.55;1827507;77;20211;-79
2021/06/24 06:34:03;;;;;;;;;;;;;;;32.45;45.95;100588.36;1826367;77;20191;-78
2021/06/24 06:36:29;;;;;;;;;;;;;;;32.69;45.11;100588.24;1825925;77;20628;-79
2021/06/24 06:39:01;;;;;;;;;;;;;;;32.82;44.43;100590.23;1825121;77;20240;-81
2021/06/24 06:41:28;;;;;;;;;;;;;;;32.99;43.77;100595.82;1827061;77;20819;-82
2021/06/24 06:43:55;;;;;;;;;;;;;;;33.16;43.27;100604.39;1827858;77;20149;-78
2021/06/24 06:46:21;;;;;;;;;;;;;;;33.28;43.16;100600.53;1829063;77;20164;-80
2021/06/24 06:48:48;;;;;;;;;;;;;;;33.57;43.01;100605.02;1803100;77;20164;-78
2021/06/24 06:51:13;;;;;;;;;;;;;;;33.61;42.68;100605.20;1826802;77;20202;-79
2021/06/24 06:53:40;;;;;;;;;;;;;;;33.71;42.76;100610.01;1823186;77;20178;-79
2021/06/24 06:56:06;;;;;;;;;;;;;;;33.84;42.87;100616.69;1823531;76;20138;-77
2021/06/24 06:58:32;;;;;;;;;;;;;;;33.96;42.48;100616.17;1806625;77;20740;-78
2021/06/24 07:00:58;;;;;;;;;;;;;;;34.02;41.75;100619.94;1823677;77;20181;-77
2021/06/24 07:03:24;;;;;;;;;;;;;;;34.06;41.54;100615.95;1826840;77;20168;-77
2021/06/24 07:05:53;;;;;;;;;;;;;;;34.10;41.90;100611.41;1825076;77;20132;-77
2021/06/24 07:08:27;;;;;;;;;;;;;;;34.21;41.59;100613.41;1792073;77;20171;-78
2021/06/24 07:10:53;;;;;;;;;;;;;;;34.31;41.56;100615.95;1823407;77;20176;-79
2021/06/24 07:13:21;;;;;;;;;;;;;;;34.41;41.22;100614.31;1825585;77;20149;-80
2021/06/24 07:15:49;;;;;;;;;;;;;;;34.54;41.10;100614.05;1824011;77;20179;-79
2021/06/24 07:18:17;;;;;;;;;;;;;;;34.68;41.04;100613.98;1825389;77;20302;-79
2021/06/24 07:20:43;;;;;;;;;;;;;;;34.84;40.93;100613.87;1820650;77;20219;-76
2021/06/24 07:23:09;;;;;;;;;;;;;;;35.00;41.04;100618.48;1821595;77;20143;-76
2021/06/24 07:25:35;;;;;;;;;;;;;;;35.15;40.51;100613.89;1822893;77;20134;-75
2021/06/24 07:28:02;;;;;;;;;;;;;;;35.28;40.02;100615.77;1817333;77;20177;-75
2021/06/24 07:30:28;;;;;;;;;;;;;;;35.42;39.69;100619.03;1824140;77;20180;-76
2021/06/24 07:32:57;;;;;;;;;;;;;;;35.52;38.61;100624.34;1823459;77;20196;-75
2021/06/24 07:35:23;;;;;;;;;;;;;;;35.60;38.19;100619.95;1820061;77;20230;-76
2021/06/24 07:37:49;;;;;;;;;;;;;;;35.66;37.89;100619.50;1819724;77;20631;-77
2021/06/24 07:40:16;;;;;;;;;;;;;;;35.67;37.66;100619.73;1819988;77;20208;-77
2021/06/24 07:42:45;;;;;;;;;;;;;;;35.70;37.41;100616.31;1819536;77;20571;-77
2021/06/24 07:45:12;;;;;;;;;;;;;;;35.74;37.16;100629.83;1798447;78;20156;-77
2021/06/24 07:47:38;;;;;;;;;;;;;;;35.75;36.58;100616.16;1823085;76;20493;-78
2021/06/24 07:50:05;;;;;;;;;;;;;;;35.76;36.43;100613.62;1824449;77;20136;-78
2021/06/24 07:52:33;;;;;;;;;;;;;;;35.77;37.00;100608.86;1821636;77;20129;-79
2021/06/24 07:55:10;;;;;;;;;;;;;;;35.79;36.59;100606.56;1822490;77;20142;-79
2021/06/24 07:57:56;;;;;;;;;;;;;;;35.83;36.28;100602.80;1827808;77;20114;-77
2021/06/24 08:00:19;;;;;;;;;;;;;;;35.89;36.25;100601.28;1822605;77;20170;-77
2021/06/24 08:02:50;;;;;;;;;;;;;;;35.94;36.25;100608.09;1820793;77;20737;-78
2021/06/24 08:05:16;;;;;;;;;;;;;;;35.95;36.17;100607.78;1818608;77;20598;-78
2021/06/24 08:07:45;;;;;;;;;;;;;;;36.01;35.73;100608.45;1819939;77;20219;-77
2021/06/24 08:10:12;;;;;;;;;;;;;;;36.05;35.32;100602.47;1817791;77;20681;-76
2021/06/24 08:12:40;;;;;;;;;;;;;;;36.07;35.26;100601.58;1823712;77;20181;-75
2021/06/24 08:15:07;;;;;;;;;;;;;;;36.08;35.32;100597.06;1826443;77;20602;-77
2021/06/24 08:17:33;;;;;;;;;;;;;;;36.11;35.42;100593.36;1821128;77;20425;-76
2021/06/24 08:19:59;;;;;;;;;;;;;;;36.13;35.59;100597.48;1745403;80;20196;-76
2021/06/24 08:22:28;;;;;;;;;;;;;;;36.16;35.77;100584.28;1742394;80;20830;-78
2021/06/24 08:24:54;;;;;;;;;;;;;;;36.19;35.48;100582.22;1724673;81;20174;-77
2021/06/24 08:27:22;;;;;;;;;;;;;;;36.20;35.60;100580.24;1768711;78;20300;-77
2021/06/24 08:29:49;;;;;;;;;;;;;;;36.20;35.58;100579.70;1791849;78;20226;-77
2021/06/24 08:32:17;;;;;;;;;;;;;;;36.23;36.36;100583.20;1736787;79;20178;-77
2021/06/24 08:34:43;;;;;;;;;;;;;;;36.29;36.92;100585.25;1794924;78;20493;-77
2021/06/24 08:37:14;;;;;;;;;;;;;;;36.36;36.90;100591.17;1794948;78;20142;-77
2021/06/24 08:39:52;;;;;;;;;;;;;;;36.44;36.62;100590.97;1700182;82;20143;-78
2021/06/24 08:42:18;;;;;;;;;;;;;;;36.50;36.97;100596.61;1796957;78;20190;-80
2021/06/24 08:44:45;;;;;;;;;;;;;;;36.58;36.85;100599.97;1794900;78;20214;-77
2021/06/24 08:47:16;;;;;;;;;;;;;;;36.63;36.47;100601.20;1796344;78;20724;-77
2021/06/24 08:49:45;;;;;;;;;;;;;;;36.68;36.42;100597.41;1792156;78;20128;-78
2021/06/24 08:52:12;;;;;;;;;;;;;;;36.71;36.33;100593.39;1765351;78;20202;-77
2021/06/24 08:54:39;;;;;;;;;;;;;;;36.72;36.20;100595.03;1790076;78;20485;-77
2021/06/24 08:57:11;;;;;;;;;;;;;;;36.75;36.33;100597.17;1793627;78;20198;-77
2021/06/24 08:59:37;;;;;;;;;;;;;;;36.77;36.14;100592.06;1791658;78;20175;-77
2021/06/24 09:02:06;;;;;;;;;;;;;;;36.76;36.33;100602.98;1791621;78;20204;-78
2021/06/24 09:04:33;;;;;;;;;;;;;;;36.75;36.42;100601.94;1793595;78;20198;-78
2021/06/24 09:07:08;;;;;;;;;;;;;;;36.72;35.97;100602.00;1794255;78;20163;-77
2021/06/24 09:09:36;;;;;;;;;;;;;;;36.68;35.11;100613.58;1763034;79;20187;-78
2021/06/24 09:12:07;;;;;;;;;;;;;;;36.61;34.82;100616.62;1763038;79;20160;-77
2021/06/24 09:14:48;;;;;;;;;;;;;;;36.51;34.88;100613.59;1732979;79;20175;-77
2021/06/24 09:17:37;;;;;;;;;;;;;;;36.42;34.86;100615.53;1702158;81;20155;-78
2021/06/24 09:20:05;;;;;;;;;;;;;;;36.32;35.21;100610.52;1793707;78;20269;-78
2021/06/24 09:22:32;;;;;;;;;;;;;;;36.24;35.45;100607.73;1793772;78;21134;-77
2021/06/24 09:24:58;;;;;;;;;;;;;;;36.19;35.33;100606.50;1796366;78;20226;-75
2021/06/24 09:27:30;;;;;;;;;;;;;;;36.13;35.17;100600.27;1796920;78;20171;-76
2021/06/24 09:30:03;;;;;;;;;;;;;;;36.04;35.57;100598.86;1796653;78;20202;-77
2021/06/24 09:32:38;;;;;;;;;;;;;;;35.99;35.68;100606.56;1793123;78;20186;-77
2021/06/24 09:35:06;;;;;;;;;;;;;;;35.92;35.95;100607.00;1795591;78;20177;-76
2021/06/24 09:37:59;;;;;;;;;;;;;;;35.85;35.55;100601.67;1799003;78;20399;-77
2021/06/24 09:40:45;;;;;;;;;;;;;;;35.79;35.78;100591.23;1767053;79;20167;-76
2021/06/24 09:43:28;;;;;;;;;;;;;;;35.73;36.01;100594.75;1758483;79;20476;-78
2021/06/24 09:46:15;;;;;;;;;;;;;;;35.67;36.44;100597.45;1799620;78;20312;-77
2021/06/24 09:48:56;;;;;;;;;;;;;;;35.62;36.15;100596.20;1772027;78;20403;-77
2021/06/24 09:54:04;;;;;;;;;;;;;;;35.53;36.61;100593.96;1775740;78;20426;-77
2021/06/24 09:56:47;;;;;;;;;;;;;;;35.47;36.40;100592.45;1795954;78;20170;-77
2021/06/24 09:59:15;;;;;;;;;;;;;;;35.41;36.75;100590.35;1792323;78;20396;-77
2021/06/24 10:01:48;;;;;;;;;;;;;;;35.37;36.96;100589.35;1764431;79;20175;-78
2021/06/24 10:04:28;;;;;;;;;;;;;;;35.32;37.38;100590.31;1755589;79;20202;-77
2021/06/24 10:06:57;;;;;;;;;;;;;;;35.27;37.24;100589.64;1763145;79;20160;-79
2021/06/24 10:09:37;;;;;;;;;;;;;;;35.21;37.22;100586.19;1732778;81;20192;-79
2021/06/24 10:12:01;;;;;;;;;;;;;;;35.17;37.57;100582.97;1798097;78;20142;-79
2021/06/24 10:14:45;;;;;;;;;;;;;;;35.13;37.40;100582.78;1796678;78;20135;-78
2021/06/24 10:17:19;;;;;;;;;;;;;;;35.09;37.74;100580.38;1773281;78;20166;-78
2021/06/24 10:20:01;;;;;;;;;;;;;;;35.05;37.99;100583.55;1799773;78;20194;-76
2021/06/24 10:22:31;;;;;;;;;;;;;;;35.03;38.64;100579.70;1791814;78;20167;-76
2021/06/24 10:25:04;;;;;;;;;;;;;;;35.02;38.54;100577.22;1773234;78;20743;-79
2021/06/24 10:27:37;;;;;;;;;;;;;;;35.02;38.58;100575.83;1799657;78;20345;-77
2021/06/24 10:31:05;;;;;;;;;;;;;;;35.01;38.67;100581.16;1794332;78;20426;-79
2021/06/24 10:33:21;;;;;;;;;;;;;;;;;;;;;
2021/06/24 10:35:51;;;;;;;;;;;;;;;34.97;39.03;100585.71;1794958;78;20187;-77
2021/06/24 10:38:22;;;;;;;;;;;;;;;34.96;39.18;100582.66;1799008;78;20150;-77
2021/06/24 10:41:02;;;;;;;;;;;;;;;34.95;39.19;100578.23;1797481;78;21054;-78
2021/06/24 10:44:12;;;;;;;;;;;;;;;34.95;39.24;100579.05;1796384;78;20187;-77
2021/06/24 10:46:38;;;;;;;;;;;;;;;34.96;39.79;100582.66;1795171;78;20401;-78
2021/06/24 10:52:59;;;;;;;;;;;;;;;34.93;40.72;100575.78;1773163;78;20159;-77
2021/06/24 10:55:42;;;;;;;;;;;;;;;34.94;40.30;100580.77;1798374;78;20202;-77
2021/06/24 10:58:31;;;;;;;;;;;;;;;34.91;40.30;100580.00;1802270;78;20151;-77
2021/06/24 11:01:00;;;;;;;;;;;;;;;34.89;40.07;100580.91;1798581;78;20139;-77
2021/06/24 11:03:35;;;;;;;;;;;;;;;34.87;39.82;100577.61;1779723;78;20217;-76
2021/06/24 11:06:16;;;;;;;;;;;;;;;34.85;39.77;100588.25;1799321;78;20213;-76
2021/06/24 11:08:43;;;;;;;;;;;;;;;34.83;40.04;100582.98;1799669;78;20579;-78
2021/06/24 11:11:16;;;;;;;;;;;;;;;34.81;40.07;100587.48;1797923;78;20160;-77
2021/06/24 11:13:49;;;;;;;;;;;;;;;34.79;39.94;100585.60;1798778;78;20139;-78
2021/06/24 11:16:19;;;;;;;;;;;;;;;34.77;39.75;100583.69;1800604;78;20161;-76
2021/06/24 11:19:01;;;;;;;;;;;;;;;34.77;39.92;100586.47;1802039;78;20203;-78
2021/06/24 11:21:37;;;;;;;;;;;;;;;34.74;40.08;100584.31;1802859;78;20451;-77
2021/06/24 11:24:08;;;;;;;;;;;;;;;34.72;40.19;100576.05;1789473;78;20175;-77
2021/06/24 11:26:39;;;;;;;;;;;;;;;34.70;40.50;100583.33;1797012;78;20144;-77
2021/06/24 11:29:28;;;;;;;;;;;;;;;34.71;40.49;100591.92;1800189;78;20179;-77
2021/06/24 11:35:28;;;;;;;;;;;;;;;34.68;40.18;100593.13;1798855;78;20163;-76
2021/06/24 11:37:03;;;;;;;;;;;;;;;34.66;40.06;100590.66;1770958;78;20146;-76
2021/06/24 11:39:35;;;;;;;;;;;;;;;34.64;39.45;100588.75;1799531;78;20553;-77
2021/06/24 11:42:04;;;;;;;;;;;;;;;34.63;39.11;100585.72;1773308;78;20160;-76
2021/06/24 11:44:37;;;;;;;;;;;;;;;34.62;39.11;100591.05;1798947;78;20449;-76
2021/06/24 11:47:08;;;;;;;;;;;;;;;34.61;38.94;100590.77;1796518;78;20409;-77
2021/06/24 12:03:34;;;;;;;;;;;;;;;34.49;39.25;100578.83;1700757;82;20190;-76
2021/06/24 12:06:00;;;;;;;;;;;;;;;34.48;39.70;100584.72;1685711;82;20182;-77
2021/06/24 12:08:27;;;;;;;;;;;;;;;34.45;40.20;100584.73;1739621;78;20164;-76
2021/06/24 12:11:05;;;;;;;;;;;;;;;34.43;40.15;100586.17;1806094;78;20185;-76
2021/06/24 12:13:34;;;;;;;;;;;;;;;34.40;40.09;100586.26;1796009;78;20463;-77
2021/06/24 12:16:00;;;;;;;;;;;;;;;34.39;40.20;100587.97;1804141;78;20090;-76
2021/06/24 12:18:41;;;;;;;;;;;;;;;34.38;40.42;100589.09;1802412;78;20147;-77
2021/06/24 12:21:10;;;;;;;;;;;;;;;34.38;40.50;100582.13;1801434;78;20194;-77
2021/06/24 12:24:10;;;;;;;;;;;;;;;34.38;40.30;100583.52;1800638;78;20517;-77
2021/06/24 12:26:38;;;;;;;;;;;;;;;34.37;40.43;100588.84;1799764;78;20147;-77
2021/06/24 12:29:04;;;;;;;;;;;;;;;34.33;40.32;100583.89;1809075;78;20136;-77
2021/06/24 12:31:34;;;;;;;;;;;;;;;34.34;40.32;100581.97;1810949;78;20438;-76
2021/06/24 12:34:04;;;;;;;;;;;;;;;34.37;40.37;100581.88;1799789;77;20152;-77
2021/06/24 12:36:34;;;;;;;;;;;;;;;34.36;40.16;100574.69;1804888;78;20134;-77
2021/06/24 12:39:00;;;;;;;;;;;;;;;34.34;40.31;100580.58;1801796;78;20191;-78
2021/06/24 12:41:27;;;;;;;;;;;;;;;34.33;40.23;100582.50;1740613;79;20234;-76
2021/06/24 12:43:58;;;;;;;;;;;;;;;34.36;40.89;100592.19;1779369;79;20138;-77
2021/06/24 12:46:26;;;;;;;;;;;;;;;34.37;41.24;100593.02;1805021;78;20198;-76
2021/06/24 12:48:52;;;;;;;;;;;;;;;34.36;41.86;100585.81;1799678;78;20182;-76
2021/06/24 12:51:22;;;;;;;;;;;;;;;34.36;41.73;100589.98;1807867;78;20142;-76
2021/06/24 12:53:53;;;;;;;;;;;;;;;34.36;41.86;100587.20;1803741;78;20174;-77
2021/06/24 12:56:31;;;;;;;;;;;;;;;34.35;41.49;100586.95;1801913;78;20191;-77
2021/06/24 12:59:17;;;;;;;;;;;;;;;34.33;41.04;100589.45;1797731;78;20148;-77
2021/06/24 13:01:41;;;;;;;;;;;;;;;34.32;40.77;100585.04;1808040;78;20139;-76
2021/06/24 13:04:16;;;;;;;;;;;;;;;34.32;39.74;100594.77;1801536;78;20472;-77
2021/06/24 13:06:51;;;;;;;;;;;;;;;34.32;39.29;100582.83;1804265;77;20146;-77
2021/06/24 13:09:17;;;;;;;;;;;;;;;34.32;38.79;100587.82;1778787;79;20195;-77
2021/06/24 13:11:55;;;;;;;;;;;;;;;34.33;38.75;100589.45;1779937;79;20186;-77
2021/06/24 13:14:23;;;;;;;;;;;;;;;34.33;38.45;100595.02;1785805;79;20159;-77
2021/06/24 13:16:53;;;;;;;;;;;;;;;34.36;38.39;100587.20;1802746;78;20168;-78